createdAt,value
2018-12-12T00:01:04.521Z,7.07
2018-12-12T00:03:32.722Z,7.30
2018-12-12T00:06:00.289Z,7.37
2018-12-12T00:08:27.861Z,6.60
2018-12-12T00:10:56.250Z,6.30
2018-12-12T00:13:24.604Z,7.60
2018-12-12T00:15:52.189Z,7.40
2018-12-12T00:18:20.592Z,7.30
2018-12-12T00:20:48.184Z,6.77
2018-12-12T00:23:15.792Z,7.60
2018-12-12T00:25:43.356Z,7.30
2018-12-12T00:28:11.694Z,7.07
2018-12-12T00:30:40.275Z,7.90
2018-12-12T00:33:07.853Z,9.77
2018-12-12T00:35:35.422Z,8.43
2018-12-12T00:38:03.045Z,7.93
2018-12-12T00:40:30.623Z,8.33
2018-12-12T00:42:58.521Z,7.77
2018-12-12T00:45:27.507Z,6.77
2018-12-12T00:47:55.082Z,8.43
2018-12-12T00:50:23.453Z,13.90
2018-12-12T00:52:51.025Z,11.10
2018-12-12T00:55:18.641Z,8.57
2018-12-12T00:57:46.220Z,7.53
2018-12-12T01:00:13.786Z,7.13
2018-12-12T01:02:41.454Z,7.27
2018-12-12T01:05:09.026Z,6.37
2018-12-12T01:07:38.206Z,7.00
2018-12-12T01:10:06.056Z,7.40
2018-12-12T01:12:33.630Z,7.37
2018-12-12T01:15:01.233Z,6.33
2018-12-12T01:17:29.564Z,9.23
2018-12-12T01:19:57.893Z,8.20
2018-12-12T01:22:25.465Z,7.50
2018-12-12T01:24:53.043Z,7.87
2018-12-12T01:27:23.090Z,7.80
2018-12-12T01:29:50.670Z,7.23
2018-12-12T01:32:18.272Z,10.67
2018-12-12T01:34:46.390Z,8.90
2018-12-12T01:37:13.927Z,8.77
2018-12-12T01:39:41.530Z,7.50
2018-12-12T01:42:10.440Z,7.40
2018-12-12T01:44:38.791Z,8.03
2018-12-12T01:47:06.366Z,7.20
2018-12-12T01:49:33.986Z,7.60
2018-12-12T01:52:01.556Z,8.00
2018-12-12T01:54:29.359Z,9.47
2018-12-12T01:56:56.976Z,8.83
2018-12-12T01:59:24.558Z,8.13
2018-12-12T02:01:52.218Z,6.97
2018-12-12T02:04:19.833Z,7.97
2018-12-12T02:06:47.863Z,9.80
2018-12-12T02:09:15.458Z,7.53
2018-12-12T02:11:43.794Z,7.27
2018-12-12T02:14:11.408Z,6.93
2018-12-12T02:16:38.988Z,6.93
2018-12-12T02:19:06.746Z,6.37
2018-12-12T02:21:34.905Z,6.67
2018-12-12T02:24:03.277Z,6.53
2018-12-12T02:26:31.230Z,6.40
2018-12-12T02:28:58.806Z,5.87
2018-12-12T02:31:28.187Z,5.60
2018-12-12T02:33:55.784Z,5.70
2018-12-12T02:36:24.139Z,6.90
2018-12-12T02:38:52.104Z,6.73
2018-12-12T02:41:19.675Z,6.43
2018-12-12T02:43:47.248Z,6.60
2018-12-12T02:46:15.661Z,6.80
2018-12-12T02:48:43.982Z,7.30
2018-12-12T02:51:11.964Z,7.27
2018-12-12T02:53:39.547Z,9.40
2018-12-12T02:56:07.461Z,8.53
2018-12-12T02:58:35.345Z,7.43
2018-12-12T03:01:02.922Z,7.73
2018-12-12T03:03:30.917Z,7.57
2018-12-12T03:05:58.953Z,7.87
2018-12-12T03:08:26.528Z,7.57
2018-12-12T03:10:54.106Z,7.37
2018-12-12T03:30:59.232Z,7.90
2018-12-12T03:33:26.799Z,8.77
2018-12-12T03:35:54.370Z,8.90
2018-12-12T03:38:21.965Z,8.87
2018-12-12T03:40:50.301Z,8.97
2018-12-12T03:43:18.360Z,9.20
2018-12-12T03:45:46.018Z,9.07
2018-12-12T03:48:14.478Z,9.30
2018-12-12T03:50:42.413Z,9.10
2018-12-12T03:53:09.977Z,9.53
2018-12-12T03:55:38.349Z,9.17
2018-12-12T03:58:05.919Z,8.67
2018-12-12T04:00:33.492Z,9.60
2018-12-12T04:03:01.864Z,9.30
2018-12-12T04:05:30.205Z,9.33
2018-12-12T04:07:57.830Z,9.63
2018-12-12T04:10:25.418Z,9.83
2018-12-12T04:12:52.988Z,8.67
2018-12-12T04:15:20.655Z,9.63
2018-12-12T04:17:48.234Z,8.57
2018-12-12T04:20:16.209Z,8.27
2018-12-12T04:22:43.796Z,10.57
2018-12-12T04:25:12.173Z,7.63
2018-12-12T04:27:39.736Z,8.00
2018-12-12T04:30:08.085Z,7.17
2018-12-12T04:32:35.695Z,7.10
2018-12-12T04:35:03.274Z,6.73
2018-12-12T04:37:30.851Z,7.47
2018-12-12T04:39:58.455Z,7.93
2018-12-12T04:42:26.808Z,7.73
2018-12-12T04:44:55.182Z,9.40
2018-12-12T04:47:22.758Z,11.45
2018-12-12T04:49:50.339Z,8.33
2018-12-12T04:52:17.944Z,8.37
2018-12-12T04:54:45.525Z,7.33
2018-12-12T04:57:13.503Z,7.30
2018-12-12T04:59:41.071Z,6.73
2018-12-12T05:02:08.653Z,7.33
2018-12-12T05:04:36.301Z,10.23
2018-12-12T05:07:03.884Z,8.00
2018-12-12T05:09:32.519Z,7.77
2018-12-12T05:12:00.094Z,7.40
2018-12-12T05:14:27.675Z,7.87
2018-12-12T05:16:55.290Z,9.67
2018-12-12T05:19:22.961Z,7.57
2018-12-12T05:21:51.065Z,7.20
2018-12-12T05:24:19.116Z,7.73
2018-12-12T05:26:46.697Z,7.50
2018-12-12T05:29:14.289Z,7.27
2018-12-12T05:31:50.819Z,7.10
2018-12-12T05:34:18.715Z,7.70
2018-12-12T05:36:47.080Z,10.43
2018-12-12T05:39:14.643Z,13.10
2018-12-12T05:41:43.217Z,15.57
2018-12-12T05:44:11.861Z,15.27
2018-12-12T05:46:41.977Z,17.63
2018-12-12T05:49:11.931Z,33.00
2018-12-12T05:51:39.538Z,27.47
2018-12-12T05:54:07.888Z,16.77
2018-12-12T05:56:36.163Z,21.73
2018-12-12T05:59:03.755Z,29.35
2018-12-12T06:01:32.143Z,20.37
2018-12-12T06:03:59.740Z,19.43
2018-12-12T06:06:27.334Z,20.90
2018-12-12T06:08:56.234Z,20.10
2018-12-12T06:11:23.820Z,16.47
2018-12-12T06:13:51.404Z,16.77
2018-12-12T06:16:19.025Z,15.63
2018-12-12T06:18:46.638Z,17.97
2018-12-12T06:21:14.219Z,15.93
2018-12-12T06:23:41.843Z,19.43
2018-12-12T06:26:09.426Z,17.97
2018-12-12T06:28:37.016Z,15.87
2018-12-12T06:31:04.657Z,20.00
2018-12-12T06:33:32.245Z,21.47
2018-12-12T06:35:59.815Z,17.13
2018-12-12T06:38:27.780Z,15.53
2018-12-12T06:40:55.360Z,13.73
2018-12-12T06:43:23.722Z,21.63
2018-12-12T06:45:51.350Z,27.27
2018-12-12T06:48:18.942Z,26.47
2018-12-12T06:50:46.517Z,17.63
2018-12-12T06:53:14.491Z,16.50
2018-12-12T06:55:43.054Z,22.92
2018-12-12T06:58:10.640Z,15.33
2018-12-12T07:00:38.895Z,26.47
2018-12-12T07:03:06.486Z,15.30
2018-12-12T07:05:34.869Z,15.97
2018-12-12T07:08:03.255Z,14.90
2018-12-12T07:10:31.595Z,14.30
2018-12-12T07:13:01.376Z,16.00
2018-12-12T07:15:28.979Z,17.63
2018-12-12T07:17:56.555Z,14.93
2018-12-12T07:20:26.509Z,14.53
2018-12-12T07:22:54.084Z,14.07
2018-12-12T07:25:21.669Z,12.80
2018-12-12T07:27:49.548Z,14.03
2018-12-12T07:30:17.396Z,11.23
2018-12-12T07:32:44.976Z,17.30
2018-12-12T07:35:12.573Z,12.70
2018-12-12T07:37:40.917Z,11.47
2018-12-12T07:40:09.478Z,11.37
2018-12-12T07:42:37.057Z,10.87
2018-12-12T07:45:04.635Z,11.97
2018-12-12T07:47:32.287Z,11.57
2018-12-12T07:49:59.858Z,10.03
2018-12-12T07:52:28.124Z,10.77
2018-12-12T07:54:56.711Z,11.07
2018-12-12T07:57:24.286Z,10.80
2018-12-12T07:59:51.860Z,17.40
2018-12-12T08:02:20.254Z,13.00
2018-12-12T08:04:47.832Z,12.50
2018-12-12T08:07:15.424Z,11.43
2018-12-12T08:09:43.050Z,11.93
2018-12-12T08:12:10.627Z,19.43
2018-12-12T08:14:38.218Z,20.50
2018-12-12T08:17:05.846Z,21.37
2018-12-12T08:19:33.426Z,16.67
2018-12-12T08:22:01.017Z,14.13
2018-12-12T08:24:28.619Z,14.30
2018-12-12T08:26:56.190Z,13.53
2018-12-12T08:29:24.195Z,13.00
2018-12-12T08:31:51.791Z,14.23
2018-12-12T08:34:20.171Z,18.97
2018-12-12T08:36:48.256Z,19.65
2018-12-12T08:39:16.602Z,18.85
2018-12-12T08:41:44.178Z,13.83
2018-12-12T08:44:12.128Z,13.50
2018-12-12T08:46:39.710Z,13.60
2018-12-12T08:49:08.177Z,12.53
2018-12-12T08:51:35.710Z,13.30
2018-12-12T08:54:03.287Z,12.73
2018-12-12T08:56:30.866Z,12.33
2018-12-12T08:58:58.826Z,12.53
2018-12-12T09:01:26.409Z,12.97
2018-12-12T09:03:53.986Z,18.57
2018-12-12T09:06:21.608Z,14.43
2018-12-12T09:08:49.194Z,13.40
2018-12-12T09:11:17.541Z,12.30
2018-12-12T09:13:45.727Z,12.10
2018-12-12T09:16:14.041Z,11.93
2018-12-12T09:18:42.382Z,12.37
2018-12-12T09:21:10.286Z,13.07
2018-12-12T09:23:38.634Z,12.83
2018-12-12T09:26:06.235Z,13.17
2018-12-12T09:28:34.622Z,13.47
2018-12-12T09:31:02.208Z,17.87
2018-12-12T09:33:29.795Z,20.80
2018-12-12T09:35:57.781Z,15.40
2018-12-12T09:38:25.365Z,18.58
2018-12-12T09:40:53.710Z,14.37
2018-12-12T09:43:21.338Z,13.33
2018-12-12T09:45:48.941Z,18.10
2018-12-12T09:48:19.348Z,19.27
2018-12-12T09:50:44.154Z,19.05
2018-12-12T09:53:11.733Z,15.83
2018-12-12T09:55:40.455Z,13.83
2018-12-12T09:58:07.697Z,14.90
2018-12-12T10:00:36.637Z,13.33
2018-12-12T10:03:04.264Z,17.77
2018-12-12T10:05:31.844Z,14.50
2018-12-12T10:07:59.418Z,13.60
2018-12-12T10:10:27.019Z,12.50
2018-12-12T10:12:54.609Z,12.60
2018-12-12T10:15:23.052Z,18.13
2018-12-12T10:17:50.628Z,14.40
2018-12-12T10:20:18.971Z,13.50
2018-12-12T10:22:46.960Z,12.93
2018-12-12T10:25:14.543Z,13.13
2018-12-12T10:27:42.891Z,11.53
2018-12-12T10:30:10.549Z,12.37
2018-12-12T10:32:38.123Z,11.87
2018-12-12T10:35:05.725Z,11.47
2018-12-12T10:37:34.578Z,17.77
2018-12-12T10:40:02.211Z,14.57
2018-12-12T10:42:29.785Z,13.63
2018-12-12T10:44:57.401Z,13.70
2018-12-12T10:47:24.979Z,13.40
2018-12-12T10:49:52.607Z,12.73
2018-12-12T10:52:20.194Z,12.90
2018-12-12T10:54:47.774Z,13.23
2018-12-12T10:57:15.680Z,14.60
2018-12-12T10:59:43.281Z,12.47
2018-12-12T11:02:29.750Z,13.80
2018-12-12T11:04:57.697Z,12.03
2018-12-12T11:07:25.323Z,11.97
2018-12-12T11:09:53.735Z,13.37
2018-12-12T11:12:21.611Z,12.60
2018-12-12T11:14:49.305Z,13.17
2018-12-12T11:17:16.811Z,14.07
2018-12-12T11:19:44.395Z,17.77
2018-12-12T11:22:13.207Z,14.37
2018-12-12T11:24:40.777Z,15.00
2018-12-12T11:27:08.354Z,20.43
2018-12-12T11:29:35.989Z,15.30
2018-12-12T11:32:03.558Z,13.80
2018-12-12T11:34:31.137Z,13.23
2018-12-12T11:37:02.043Z,13.10
2018-12-12T11:39:29.619Z,13.73
2018-12-12T11:42:00.411Z,12.20
2018-12-12T11:44:29.443Z,12.73
2018-12-12T11:46:58.029Z,13.87
2018-12-12T11:49:28.284Z,12.37
2018-12-12T11:51:56.428Z,12.83
2018-12-12T11:54:24.014Z,13.20
2018-12-12T11:56:52.374Z,18.17
2018-12-12T11:59:20.021Z,15.57
2018-12-12T12:01:47.591Z,13.63
2018-12-12T12:04:15.163Z,12.53
2018-12-12T12:06:43.130Z,13.90
2018-12-12T12:09:10.714Z,12.00
2018-12-12T12:11:41.319Z,12.17
2018-12-12T12:14:09.201Z,12.07
2018-12-12T12:16:45.233Z,11.80
2018-12-12T12:19:12.814Z,12.53
2018-12-12T12:21:41.170Z,11.30
2018-12-12T12:24:08.750Z,11.87
2018-12-12T12:26:36.369Z,12.03
2018-12-12T12:29:05.629Z,12.80
2018-12-12T12:31:33.209Z,13.13
2018-12-12T12:34:03.386Z,16.83
2018-12-12T12:36:29.785Z,13.27
2018-12-12T12:38:57.356Z,13.00
2018-12-12T12:41:25.936Z,13.60
2018-12-12T12:43:53.532Z,15.07
2018-12-12T12:46:21.266Z,13.40
2018-12-12T12:48:50.597Z,12.53
2018-12-12T12:51:18.175Z,12.40
2018-12-12T12:53:45.751Z,11.87
2018-12-12T12:56:14.833Z,16.53
2018-12-12T12:58:42.413Z,13.70
2018-12-12T13:01:10.759Z,13.10
2018-12-12T13:03:38.772Z,11.67
2018-12-12T13:06:06.350Z,9.37
2018-12-12T13:08:33.942Z,9.17
2018-12-12T13:11:01.942Z,10.40
2018-12-12T13:13:29.659Z,9.50
2018-12-12T13:15:57.875Z,8.87
2018-12-12T13:18:25.494Z,7.93
2018-12-12T13:20:53.389Z,7.97
2018-12-12T13:23:20.964Z,8.00
2018-12-12T13:25:48.579Z,8.83
2018-12-12T13:28:16.150Z,8.50
2018-12-12T13:30:43.775Z,8.93
2018-12-12T13:33:12.109Z,8.20
2018-12-12T13:35:44.494Z,8.60
2018-12-12T13:38:13.496Z,7.73
2018-12-12T13:40:41.070Z,7.30
2018-12-12T13:43:08.662Z,7.20
2018-12-12T13:45:36.268Z,8.87
2018-12-12T13:48:03.840Z,6.17
2018-12-12T13:50:31.821Z,7.40
2018-12-12T13:53:01.847Z,6.18
2018-12-12T13:55:29.423Z,6.97
2018-12-12T13:57:58.317Z,6.53
2018-12-12T14:00:26.666Z,5.80
2018-12-12T14:02:54.242Z,5.37
2018-12-12T14:05:21.875Z,5.73
2018-12-12T14:07:49.737Z,5.43
2018-12-12T14:10:17.327Z,5.70
2018-12-12T14:12:45.119Z,6.57
2018-12-12T14:15:14.920Z,6.47
2018-12-12T14:17:42.495Z,6.00
2018-12-12T14:20:11.155Z,5.37
2018-12-12T14:22:38.726Z,5.20
2018-12-12T14:25:06.300Z,5.70
2018-12-12T14:27:38.929Z,5.63
2018-12-12T14:30:02.832Z,5.20
2018-12-12T14:32:30.788Z,5.40
2018-12-12T14:34:58.983Z,7.18
2018-12-12T14:37:27.451Z,6.03
2018-12-12T14:39:55.020Z,4.63
2018-12-12T14:42:22.993Z,5.40
2018-12-12T14:44:50.565Z,5.33
2018-12-12T14:47:18.141Z,7.00
2018-12-12T14:49:47.708Z,5.37
2018-12-12T14:52:15.329Z,5.20
2018-12-12T14:54:42.901Z,5.40
2018-12-12T14:57:10.504Z,5.57
2018-12-12T14:59:38.077Z,5.57
2018-12-12T15:02:06.042Z,5.27
2018-12-12T15:04:36.112Z,6.87
2018-12-12T15:07:01.965Z,7.35
2018-12-12T15:09:29.588Z,6.53
2018-12-12T15:11:57.166Z,6.47
2018-12-12T15:14:24.799Z,6.70
2018-12-12T15:16:52.362Z,6.20
2018-12-12T15:19:19.928Z,5.90
2018-12-12T15:21:47.503Z,5.73
2018-12-12T15:24:16.464Z,5.83
2018-12-12T15:26:44.041Z,6.17
2018-12-12T15:29:11.621Z,6.53
2018-12-12T15:31:39.700Z,6.50
2018-12-12T15:34:07.636Z,7.13
2018-12-12T15:36:35.209Z,10.33
2018-12-12T15:39:03.627Z,7.97
2018-12-12T15:41:32.359Z,6.53
2018-12-12T15:44:02.145Z,7.03
2018-12-12T15:46:30.929Z,7.43
2018-12-12T15:48:59.465Z,7.60
2018-12-12T15:51:30.180Z,7.80
2018-12-12T15:54:00.882Z,8.73
2018-12-12T15:56:30.368Z,7.60
2018-12-12T15:58:59.312Z,8.17
2018-12-12T16:01:31.087Z,8.30
2018-12-12T16:03:59.934Z,7.83
2018-12-12T16:06:30.738Z,8.20
2018-12-12T16:09:00.023Z,8.50
2018-12-12T16:11:31.492Z,8.17
2018-12-12T16:13:59.175Z,11.05
2018-12-12T16:16:30.018Z,8.73
2018-12-12T16:19:00.309Z,8.00
2018-12-12T16:21:29.859Z,8.10
2018-12-12T16:23:59.295Z,6.10
2018-12-12T16:26:28.013Z,5.63
2018-12-12T16:28:55.590Z,6.30
2018-12-12T16:31:23.168Z,5.83
2018-12-12T16:33:52.909Z,5.90
2018-12-12T16:36:22.306Z,5.90
2018-12-12T16:38:50.792Z,6.20
2018-12-12T16:41:19.609Z,4.80
2018-12-12T16:43:47.177Z,5.30
2018-12-12T16:46:19.462Z,4.70
2018-12-12T16:48:48.630Z,4.60
2018-12-12T16:51:17.020Z,4.90
2018-12-12T16:53:45.350Z,5.20
2018-12-12T16:56:15.716Z,5.57
2018-12-12T16:58:45.344Z,5.37
2018-12-12T17:01:16.443Z,4.70
2018-12-12T17:03:47.199Z,14.97
2018-12-12T17:06:17.216Z,6.70
2018-12-12T17:08:47.711Z,15.73
2018-12-12T17:11:18.489Z,13.60
2018-12-12T17:13:47.921Z,6.80
2018-12-12T17:16:19.323Z,8.05
2018-12-12T17:18:48.935Z,6.73
2018-12-12T17:21:16.512Z,6.43
2018-12-12T17:23:45.356Z,6.67
2018-12-12T17:26:13.597Z,7.03
2018-12-12T17:28:43.107Z,6.83
2018-12-12T17:31:11.759Z,6.23
2018-12-12T17:33:39.360Z,7.30
2018-12-12T17:36:09.150Z,8.90
2018-12-12T17:38:37.532Z,7.37
2018-12-12T17:41:06.275Z,7.83
2018-12-12T17:43:34.002Z,7.10
2018-12-12T17:46:02.353Z,7.73
2018-12-12T17:48:32.138Z,8.07
2018-12-12T17:50:59.239Z,7.73
2018-12-12T17:53:29.611Z,7.77
2018-12-12T17:55:58.188Z,7.40
2018-12-12T17:58:26.732Z,7.07
2018-12-12T18:00:54.304Z,8.00
2018-12-12T18:03:24.065Z,9.03
2018-12-12T18:05:53.999Z,8.87
2018-12-12T18:08:23.589Z,8.87
2018-12-12T18:10:51.458Z,8.67
2018-12-12T18:13:22.062Z,8.20
2018-12-12T18:15:49.723Z,7.57
2018-12-12T18:18:17.841Z,9.80
2018-12-12T18:20:46.742Z,9.33
2018-12-12T18:23:14.304Z,8.77
2018-12-12T18:25:42.280Z,9.50
2018-12-12T18:28:10.454Z,10.00
2018-12-12T18:30:38.701Z,14.55
2018-12-12T18:33:07.553Z,12.95
2018-12-12T18:35:37.586Z,9.77
2018-12-12T18:38:05.147Z,10.07
2018-12-12T18:40:33.842Z,9.93
2018-12-12T18:43:02.375Z,11.37
2018-12-12T18:45:30.307Z,10.57
2018-12-12T18:47:59.351Z,13.43
2018-12-12T18:50:27.485Z,11.33
2018-12-12T18:52:56.365Z,11.20
2018-12-12T18:55:35.311Z,11.07
2018-12-12T18:58:05.691Z,11.60
2018-12-12T19:00:36.242Z,12.13
2018-12-12T19:03:06.780Z,12.30
2018-12-12T19:05:36.687Z,14.17
2018-12-12T19:08:07.595Z,13.23
2018-12-12T19:10:40.481Z,16.30
2018-12-12T19:13:08.048Z,20.87
2018-12-12T19:15:37.940Z,12.67
2018-12-12T19:18:08.766Z,13.03
2018-12-12T19:20:41.299Z,16.45
2018-12-12T19:23:11.709Z,12.60
2018-12-12T19:25:41.355Z,10.73
2018-12-12T19:28:11.097Z,10.53
2018-12-12T19:30:40.788Z,10.67
2018-12-12T19:33:13.498Z,11.97
2018-12-12T19:35:41.073Z,12.77
2018-12-12T19:38:08.647Z,11.83
2018-12-12T19:40:40.083Z,11.37
2018-12-12T19:43:07.656Z,11.47
2018-12-12T19:45:38.210Z,11.00
2018-12-12T19:48:06.745Z,10.83
2018-12-12T19:50:36.732Z,10.37
2018-12-12T19:53:08.254Z,11.03
2018-12-12T19:55:38.584Z,9.50
2018-12-12T19:58:07.393Z,9.93
2018-12-12T20:00:38.125Z,9.53
2018-12-12T20:03:06.520Z,9.97
2018-12-12T20:05:41.095Z,10.23
2018-12-12T20:08:04.865Z,14.00
2018-12-12T20:10:34.012Z,11.80
2018-12-12T20:13:04.476Z,13.62
2018-12-12T20:15:44.222Z,10.47
2018-12-12T20:18:11.802Z,13.23
2018-12-12T20:20:40.085Z,9.83
2018-12-12T20:23:10.870Z,10.03
2018-12-12T20:25:40.108Z,7.97
2018-12-12T20:28:14.349Z,8.70
2018-12-12T20:30:43.112Z,8.87
2018-12-12T20:33:11.474Z,9.27
2018-12-12T20:35:39.092Z,9.40
2018-12-12T20:38:06.708Z,9.47
2018-12-12T20:40:34.289Z,9.27
2018-12-12T20:43:03.102Z,9.17
2018-12-12T20:45:31.410Z,8.93
2018-12-12T20:47:59.019Z,9.67
2018-12-12T20:50:26.600Z,9.33
2018-12-12T20:52:54.198Z,9.63
2018-12-12T20:55:21.780Z,9.77
2018-12-12T20:57:52.772Z,11.10
2018-12-12T21:00:20.642Z,14.98
2018-12-12T21:02:48.242Z,11.30
2018-12-12T21:05:16.229Z,11.57
2018-12-12T21:07:46.166Z,10.83
2018-12-12T21:10:14.255Z,10.57
2018-12-12T21:12:46.721Z,11.73
2018-12-12T21:15:16.636Z,10.17
2018-12-12T21:17:44.393Z,9.67
2018-12-12T21:20:12.763Z,9.60
2018-12-12T21:22:41.060Z,9.63
2018-12-12T21:25:12.200Z,12.70
2018-12-12T21:27:45.422Z,10.03
2018-12-12T21:30:17.267Z,9.40
2018-12-12T21:32:41.366Z,8.87
2018-12-12T21:35:08.964Z,9.10
2018-12-12T21:37:36.507Z,8.73
2018-12-12T21:40:05.047Z,9.47
2018-12-12T21:42:32.622Z,8.70
2018-12-12T21:45:00.203Z,7.60
2018-12-12T21:47:28.124Z,8.30
2018-12-12T21:49:55.759Z,8.27
2018-12-12T21:52:24.041Z,7.60
2018-12-12T21:54:52.028Z,7.70
2018-12-12T21:57:19.978Z,7.70
2018-12-12T21:59:47.680Z,7.40
2018-12-12T22:02:15.641Z,7.67
2018-12-12T22:04:43.209Z,7.37
2018-12-12T22:07:11.684Z,8.10
2018-12-12T22:09:39.997Z,7.73
2018-12-12T22:12:07.564Z,7.20
2018-12-12T22:14:35.156Z,8.00
2018-12-12T22:17:02.813Z,6.83
2018-12-12T22:19:30.425Z,8.37
2018-12-12T22:21:57.966Z,7.97
2018-12-12T22:26:59.532Z,10.90
2018-12-12T22:29:27.118Z,9.60
2018-12-12T22:31:55.509Z,7.90
2018-12-12T22:34:23.856Z,8.10
2018-12-12T22:36:51.474Z,8.23
2018-12-12T22:39:19.059Z,7.43
2018-12-12T22:41:46.640Z,7.80
2018-12-12T22:44:14.535Z,7.37
2018-12-12T22:46:42.136Z,8.13
2018-12-12T22:49:12.135Z,7.27
2018-12-12T22:51:40.541Z,7.33
2018-12-12T22:54:08.121Z,6.60
2018-12-12T22:56:35.709Z,6.97
2018-12-12T22:59:03.436Z,7.17
2018-12-12T23:01:31.012Z,7.00
2018-12-12T23:03:58.597Z,7.57
2018-12-12T23:06:26.299Z,7.00
2018-12-12T23:08:53.888Z,6.87
2018-12-12T23:11:21.471Z,6.97
2018-12-12T23:13:49.445Z,6.67
2018-12-12T23:16:17.026Z,5.73
2018-12-12T23:18:45.403Z,8.63
2018-12-12T23:21:13.821Z,7.77
2018-12-12T23:23:41.397Z,6.43
2018-12-12T23:26:08.984Z,6.33
2018-12-12T23:28:36.953Z,5.97
2018-12-12T23:31:04.547Z,6.13
2018-12-12T23:33:32.896Z,5.87
2018-12-12T23:36:00.518Z,5.93
2018-12-12T23:38:28.090Z,6.40
2018-12-12T23:40:55.665Z,5.97
2018-12-12T23:43:23.299Z,6.20
2018-12-12T23:45:50.875Z,5.87
2018-12-12T23:48:18.530Z,5.87
2018-12-12T23:50:46.110Z,6.13
2018-12-12T23:53:13.983Z,5.60
2018-12-12T23:55:41.870Z,5.67
2018-12-12T23:58:09.446Z,6.03
